sensor_id;sensor_type;location;lat;lon;timestamp;P1;durP1;ratioP1;P2;durP2;ratioP2
47796;SDS011;33558;50.922;14.068;2023-02-28T00:01:06;6.70;;;3.50;;
47796;SDS011;33558;50.922;14.068;2023-02-28T00:03:33;6.53;;;3.10;;
47796;SDS011;33558;50.922;14.068;2023-02-28T00:06:00;5.53;;;2.80;;
47796;SDS011;33558;50.922;14.068;2023-02-28T00:08:27;7.27;;;3.30;;
47796;SDS011;33558;50.922;14.068;2023-02-28T00:10:54;7.13;;;3.30;;
47796;SDS011;33558;50.922;14.068;2023-02-28T00:13:22;7.80;;;3.83;;
47796;SDS011;33558;50.922;14.068;2023-02-28T00:15:57;6.90;;;3.37;;
47796;SDS011;33558;50.922;14.068;2023-02-28T00:18:25;7.40;;;3.63;;
47796;SDS011;33558;50.922;14.068;2023-02-28T00:20:51;9.97;;;3.87;;
47796;SDS011;33558;50.922;14.068;2023-02-28T00:23:18;6.17;;;4.17;;
47796;SDS011;33558;50.922;14.068;2023-02-28T00:25:45;6.50;;;3.53;;
47796;SDS011;33558;50.922;14.068;2023-02-28T00:28:11;6.17;;;3.90;;
47796;SDS011;33558;50.922;14.068;2023-02-28T00:30:39;6.97;;;3.80;;
47796;SDS011;33558;50.922;14.068;2023-02-28T00:33:06;6.77;;;3.47;;
47796;SDS011;33558;50.922;14.068;2023-02-28T00:35:33;6.57;;;3.63;;
47796;SDS011;33558;50.922;14.068;2023-02-28T00:38:00;6.57;;;3.50;;
47796;SDS011;33558;50.922;14.068;2023-02-28T00:40:26;7.40;;;4.20;;
47796;SDS011;33558;50.922;14.068;2023-02-28T00:42:53;8.27;;;3.70;;
47796;SDS011;33558;50.922;14.068;2023-02-28T00:45:20;6.30;;;3.40;;
47796;SDS011;33558;50.922;14.068;2023-02-28T00:47:48;6.30;;;3.47;;
47796;SDS011;33558;50.922;14.068;2023-02-28T00:50:17;8.27;;;3.67;;
47796;SDS011;33558;50.922;14.068;2023-02-28T00:52:44;6.87;;;4.17;;
47796;SDS011;33558;50.922;14.068;2023-02-28T00:55:10;7.93;;;4.20;;
47796;SDS011;33558;50.922;14.068;2023-02-28T00:57:37;8.33;;;3.90;;
47796;SDS011;33558;50.922;14.068;2023-02-28T01:00:04;7.17;;;3.93;;
47796;SDS011;33558;50.922;14.068;2023-02-28T01:02:31;9.07;;;4.00;;
47796;SDS011;33558;50.922;14.068;2023-02-28T01:04:59;12.37;;;5.80;;
47796;SDS011;33558;50.922;14.068;2023-02-28T01:07:28;7.87;;;4.57;;
47796;SDS011;33558;50.922;14.068;2023-02-28T01:09:55;9.83;;;4.63;;
47796;SDS011;33558;50.922;14.068;2023-02-28T01:12:24;6.53;;;4.03;;
47796;SDS011;33558;50.922;14.068;2023-02-28T01:14:50;7.53;;;4.00;;
47796;SDS011;33558;50.922;14.068;2023-02-28T01:17:17;7.77;;;4.10;;
47796;SDS011;33558;50.922;14.068;2023-02-28T01:19:43;8.70;;;4.90;;
47796;SDS011;33558;50.922;14.068;2023-02-28T01:22:11;9.30;;;4.77;;
47796;SDS011;33558;50.922;14.068;2023-02-28T01:24:40;7.30;;;4.30;;
47796;SDS011;33558;50.922;14.068;2023-02-28T01:27:07;5.73;;;3.43;;
47796;SDS011;33558;50.922;14.068;2023-02-28T01:29:36;7.00;;;3.83;;
47796;SDS011;33558;50.922;14.068;2023-02-28T01:32:02;7.90;;;4.37;;
47796;SDS011;33558;50.922;14.068;2023-02-28T01:34:29;7.23;;;3.90;;
47796;SDS011;33558;50.922;14.068;2023-02-28T01:36:56;6.40;;;3.70;;
47796;SDS011;33558;50.922;14.068;2023-02-28T01:39:25;9.50;;;3.83;;
47796;SDS011;33558;50.922;14.068;2023-02-28T01:41:52;6.77;;;3.87;;
47796;SDS011;33558;50.922;14.068;2023-02-28T01:47:23;9.77;;;3.80;;
47796;SDS011;33558;50.922;14.068;2023-02-28T01:49:52;7.53;;;4.10;;
47796;SDS011;33558;50.922;14.068;2023-02-28T01:52:19;7.30;;;3.17;;
47796;SDS011;33558;50.922;14.068;2023-02-28T01:54:48;8.60;;;4.30;;
47796;SDS011;33558;50.922;14.068;2023-02-28T01:57:19;8.73;;;4.87;;
47796;SDS011;33558;50.922;14.068;2023-02-28T01:59:50;8.23;;;4.27;;
47796;SDS011;33558;50.922;14.068;2023-02-28T02:02:19;8.13;;;3.97;;
47796;SDS011;33558;50.922;14.068;2023-02-28T02:04:50;7.80;;;3.83;;
47796;SDS011;33558;50.922;14.068;2023-02-28T02:07:18;8.47;;;4.10;;
47796;SDS011;33558;50.922;14.068;2023-02-28T02:09:44;8.97;;;3.83;;
47796;SDS011;33558;50.922;14.068;2023-02-28T02:12:15;8.10;;;4.00;;
47796;SDS011;33558;50.922;14.068;2023-02-28T02:14:54;9.27;;;4.17;;
47796;SDS011;33558;50.922;14.068;2023-02-28T02:17:26;8.23;;;4.30;;
47796;SDS011;33558;50.922;14.068;2023-02-28T02:23:00;5.90;;;3.50;;
47796;SDS011;33558;50.922;14.068;2023-02-28T02:35:28;9.57;;;4.73;;
47796;SDS011;33558;50.922;14.068;2023-02-28T02:39:05;6.90;;;3.73;;
47796;SDS011;33558;50.922;14.068;2023-02-28T02:42:21;10.00;;;4.20;;
47796;SDS011;33558;50.922;14.068;2023-02-28T02:45:35;7.27;;;4.47;;
47796;SDS011;33558;50.922;14.068;2023-02-28T03:11:21;9.60;;;4.87;;
47796;SDS011;33558;50.922;14.068;2023-02-28T03:15:24;7.73;;;4.40;;
47796;SDS011;33558;50.922;14.068;2023-02-28T03:18:52;8.97;;;4.63;;
47796;SDS011;33558;50.922;14.068;2023-02-28T03:22:55;9.13;;;5.23;;
47796;SDS011;33558;50.922;14.068;2023-02-28T03:34:10;13.73;;;6.40;;
47796;SDS011;33558;50.922;14.068;2023-02-28T03:36:41;11.63;;;5.93;;
47796;SDS011;33558;50.922;14.068;2023-02-28T03:39:12;9.40;;;5.57;;
47796;SDS011;33558;50.922;14.068;2023-02-28T03:41:42;10.53;;;5.33;;
47796;SDS011;33558;50.922;14.068;2023-02-28T03:44:13;11.17;;;5.73;;
47796;SDS011;33558;50.922;14.068;2023-02-28T03:46:44;14.63;;;6.80;;
47796;SDS011;33558;50.922;14.068;2023-02-28T03:49:15;12.83;;;6.07;;
47796;SDS011;33558;50.922;14.068;2023-02-28T03:51:43;14.20;;;6.30;;
47796;SDS011;33558;50.922;14.068;2023-02-28T03:54:12;13.73;;;6.97;;
47796;SDS011;33558;50.922;14.068;2023-02-28T03:56:40;12.23;;;5.60;;
47796;SDS011;33558;50.922;14.068;2023-02-28T03:59:10;12.77;;;5.70;;
47796;SDS011;33558;50.922;14.068;2023-02-28T04:01:40;10.77;;;6.23;;
47796;SDS011;33558;50.922;14.068;2023-02-28T04:04:09;10.93;;;6.07;;
47796;SDS011;33558;50.922;14.068;2023-02-28T04:06:37;10.67;;;6.47;;
47796;SDS011;33558;50.922;14.068;2023-02-28T04:09:04;9.70;;;6.27;;
47796;SDS011;33558;50.922;14.068;2023-02-28T04:11:33;15.67;;;7.33;;
47796;SDS011;33558;50.922;14.068;2023-02-28T04:14:03;12.73;;;6.83;;
47796;SDS011;33558;50.922;14.068;2023-02-28T04:16:31;16.27;;;7.60;;
47796;SDS011;33558;50.922;14.068;2023-02-28T04:19:01;13.17;;;7.07;;
47796;SDS011;33558;50.922;14.068;2023-02-28T04:21:30;11.67;;;7.53;;
47796;SDS011;33558;50.922;14.068;2023-02-28T04:23:57;14.90;;;8.50;;
47796;SDS011;33558;50.922;14.068;2023-02-28T04:26:27;16.00;;;8.67;;
47796;SDS011;33558;50.922;14.068;2023-02-28T04:28:55;15.67;;;7.77;;
47796;SDS011;33558;50.922;14.068;2023-02-28T04:31:22;15.83;;;8.93;;
47796;SDS011;33558;50.922;14.068;2023-02-28T04:33:48;15.67;;;8.47;;
47796;SDS011;33558;50.922;14.068;2023-02-28T04:36:17;17.77;;;11.10;;
47796;SDS011;33558;50.922;14.068;2023-02-28T04:38:44;19.60;;;9.90;;
47796;SDS011;33558;50.922;14.068;2023-02-28T04:41:11;19.27;;;9.00;;
47796;SDS011;33558;50.922;14.068;2023-02-28T04:43:38;16.57;;;9.13;;
47796;SDS011;33558;50.922;14.068;2023-02-28T04:46:04;20.53;;;9.90;;
47796;SDS011;33558;50.922;14.068;2023-02-28T04:48:33;17.27;;;10.97;;
47796;SDS011;33558;50.922;14.068;2023-02-28T04:51:01;21.00;;;9.53;;
47796;SDS011;33558;50.922;14.068;2023-02-28T04:53:29;18.00;;;9.53;;
47796;SDS011;33558;50.922;14.068;2023-02-28T04:55:56;19.77;;;10.13;;
47796;SDS011;33558;50.922;14.068;2023-02-28T04:58:23;17.97;;;9.27;;
47796;SDS011;33558;50.922;14.068;2023-02-28T05:00:50;21.37;;;10.63;;
47796;SDS011;33558;50.922;14.068;2023-02-28T05:03:17;18.27;;;9.13;;
47796;SDS011;33558;50.922;14.068;2023-02-28T05:05:44;18.13;;;9.50;;
47796;SDS011;33558;50.922;14.068;2023-02-28T05:08:11;18.97;;;10.47;;
47796;SDS011;33558;50.922;14.068;2023-02-28T05:10:39;15.13;;;8.70;;
47796;SDS011;33558;50.922;14.068;2023-02-28T05:13:06;18.93;;;9.30;;
47796;SDS011;33558;50.922;14.068;2023-02-28T05:15:32;17.00;;;9.37;;
47796;SDS011;33558;50.922;14.068;2023-02-28T05:17:59;18.30;;;9.13;;
47796;SDS011;33558;50.922;14.068;2023-02-28T05:20:26;18.73;;;9.73;;
47796;SDS011;33558;50.922;14.068;2023-02-28T05:22:52;18.37;;;9.20;;
47796;SDS011;33558;50.922;14.068;2023-02-28T05:25:20;19.33;;;9.93;;
47796;SDS011;33558;50.922;14.068;2023-02-28T05:27:49;21.03;;;9.47;;
47796;SDS011;33558;50.922;14.068;2023-02-28T05:30:16;16.90;;;8.57;;
47796;SDS011;33558;50.922;14.068;2023-02-28T05:32:42;19.60;;;9.93;;
47796;SDS011;33558;50.922;14.068;2023-02-28T05:35:09;18.60;;;9.33;;
47796;SDS011;33558;50.922;14.068;2023-02-28T05:37:37;16.50;;;8.47;;
47796;SDS011;33558;50.922;14.068;2023-02-28T05:40:04;17.63;;;9.00;;
47796;SDS011;33558;50.922;14.068;2023-02-28T05:42:35;16.23;;;8.67;;
47796;SDS011;33558;50.922;14.068;2023-02-28T05:45:03;18.20;;;8.60;;
47796;SDS011;33558;50.922;14.068;2023-02-28T05:47:32;16.30;;;9.03;;
47796;SDS011;33558;50.922;14.068;2023-02-28T05:49:58;20.60;;;9.60;;
47796;SDS011;33558;50.922;14.068;2023-02-28T05:52:26;18.30;;;9.47;;
47796;SDS011;33558;50.922;14.068;2023-02-28T05:54:52;17.50;;;9.37;;
47796;SDS011;33558;50.922;14.068;2023-02-28T05:57:19;17.97;;;9.87;;
47796;SDS011;33558;50.922;14.068;2023-02-28T05:59:46;20.40;;;10.17;;
47796;SDS011;33558;50.922;14.068;2023-02-28T06:02:15;17.67;;;9.33;;
47796;SDS011;33558;50.922;14.068;2023-02-28T06:04:42;20.13;;;9.30;;
47796;SDS011;33558;50.922;14.068;2023-02-28T06:07:10;21.37;;;10.07;;
47796;SDS011;33558;50.922;14.068;2023-02-28T06:09:37;17.03;;;9.23;;
47796;SDS011;33558;50.922;14.068;2023-02-28T06:12:04;17.90;;;9.53;;
47796;SDS011;33558;50.922;14.068;2023-02-28T06:14:32;17.27;;;9.00;;
47796;SDS011;33558;50.922;14.068;2023-02-28T06:17:00;15.93;;;8.13;;
47796;SDS011;33558;50.922;14.068;2023-02-28T06:19:28;14.73;;;8.50;;
47796;SDS011;33558;50.922;14.068;2023-02-28T06:21:55;17.33;;;8.63;;
47796;SDS011;33558;50.922;14.068;2023-02-28T06:24:24;16.23;;;9.47;;
47796;SDS011;33558;50.922;14.068;2023-02-28T06:26:53;20.10;;;9.07;;
47796;SDS011;33558;50.922;14.068;2023-02-28T06:29:19;21.33;;;10.20;;
47796;SDS011;33558;50.922;14.068;2023-02-28T06:31:47;16.17;;;10.00;;
47796;SDS011;33558;50.922;14.068;2023-02-28T06:34:14;20.00;;;9.90;;
47796;SDS011;33558;50.922;14.068;2023-02-28T06:36:42;16.03;;;9.27;;
47796;SDS011;33558;50.922;14.068;2023-02-28T06:39:09;19.43;;;11.17;;
47796;SDS011;33558;50.922;14.068;2023-02-28T06:41:36;18.67;;;9.97;;
47796;SDS011;33558;50.922;14.068;2023-02-28T06:44:03;18.50;;;10.90;;
47796;SDS011;33558;50.922;14.068;2023-02-28T06:46:31;18.70;;;10.00;;
47796;SDS011;33558;50.922;14.068;2023-02-28T06:48:58;21.20;;;10.17;;
47796;SDS011;33558;50.922;14.068;2023-02-28T06:51:26;17.13;;;8.93;;
47796;SDS011;33558;50.922;14.068;2023-02-28T06:53:54;22.40;;;9.97;;
47796;SDS011;33558;50.922;14.068;2023-02-28T06:56:20;18.17;;;9.47;;
47796;SDS011;33558;50.922;14.068;2023-02-28T06:58:47;15.10;;;8.47;;
47796;SDS011;33558;50.922;14.068;2023-02-28T07:01:14;19.60;;;11.23;;
47796;SDS011;33558;50.922;14.068;2023-02-28T07:03:41;19.30;;;9.93;;
47796;SDS011;33558;50.922;14.068;2023-02-28T07:06:07;21.60;;;10.87;;
47796;SDS011;33558;50.922;14.068;2023-02-28T07:11:18;19.90;;;11.27;;
47796;SDS011;33558;50.922;14.068;2023-02-28T07:13:46;18.13;;;9.77;;
47796;SDS011;33558;50.922;14.068;2023-02-28T07:16:13;15.27;;;9.60;;
47796;SDS011;33558;50.922;14.068;2023-02-28T07:18:39;17.37;;;9.20;;
47796;SDS011;33558;50.922;14.068;2023-02-28T07:21:07;16.70;;;9.63;;
47796;SDS011;33558;50.922;14.068;2023-02-28T07:23:35;16.43;;;9.63;;
47796;SDS011;33558;50.922;14.068;2023-02-28T07:26:04;17.27;;;9.53;;
47796;SDS011;33558;50.922;14.068;2023-02-28T07:28:32;14.27;;;8.27;;
47796;SDS011;33558;50.922;14.068;2023-02-28T07:31:03;21.10;;;9.90;;
47796;SDS011;33558;50.922;14.068;2023-02-28T07:33:31;18.90;;;8.93;;
47796;SDS011;33558;50.922;14.068;2023-02-28T07:36:02;15.87;;;8.20;;
47796;SDS011;33558;50.922;14.068;2023-02-28T07:38:30;18.07;;;9.60;;
47796;SDS011;33558;50.922;14.068;2023-02-28T07:40:57;16.33;;;9.30;;
47796;SDS011;33558;50.922;14.068;2023-02-28T07:43:24;17.33;;;8.97;;
47796;SDS011;33558;50.922;14.068;2023-02-28T07:45:53;19.40;;;10.57;;
47796;SDS011;33558;50.922;14.068;2023-02-28T07:48:20;23.53;;;11.93;;
47796;SDS011;33558;50.922;14.068;2023-02-28T07:50:53;17.67;;;9.93;;
47796;SDS011;33558;50.922;14.068;2023-02-28T07:53:21;16.70;;;9.27;;
47796;SDS011;33558;50.922;14.068;2023-02-28T07:55:48;17.50;;;8.53;;
47796;SDS011;33558;50.922;14.068;2023-02-28T07:58:16;15.30;;;8.47;;
47796;SDS011;33558;50.922;14.068;2023-02-28T08:00:43;16.33;;;9.73;;
47796;SDS011;33558;50.922;14.068;2023-02-28T08:03:12;17.33;;;10.47;;
47796;SDS011;33558;50.922;14.068;2023-02-28T08:05:39;18.10;;;10.67;;
47796;SDS011;33558;50.922;14.068;2023-02-28T08:08:07;17.03;;;9.57;;
47796;SDS011;33558;50.922;14.068;2023-02-28T08:10:34;19.10;;;10.97;;
47796;SDS011;33558;50.922;14.068;2023-02-28T08:13:02;19.33;;;10.23;;
47796;SDS011;33558;50.922;14.068;2023-02-28T08:15:29;22.77;;;11.20;;
47796;SDS011;33558;50.922;14.068;2023-02-28T08:17:56;20.70;;;10.07;;
47796;SDS011;33558;50.922;14.068;2023-02-28T08:20:24;17.83;;;10.03;;
47796;SDS011;33558;50.922;14.068;2023-02-28T08:22:52;19.27;;;9.87;;
47796;SDS011;33558;50.922;14.068;2023-02-28T08:25:19;16.77;;;9.40;;
47796;SDS011;33558;50.922;14.068;2023-02-28T08:27:46;16.93;;;9.60;;
47796;SDS011;33558;50.922;14.068;2023-02-28T08:30:13;19.87;;;11.10;;
47796;SDS011;33558;50.922;14.068;2023-02-28T08:32:40;22.57;;;12.97;;
47796;SDS011;33558;50.922;14.068;2023-02-28T08:35:07;21.60;;;10.80;;
47796;SDS011;33558;50.922;14.068;2023-02-28T08:37:36;19.10;;;10.80;;
47796;SDS011;33558;50.922;14.068;2023-02-28T08:40:04;19.90;;;10.77;;
47796;SDS011;33558;50.922;14.068;2023-02-28T08:42:31;18.10;;;10.73;;
47796;SDS011;33558;50.922;14.068;2023-02-28T08:44:58;17.53;;;10.10;;
47796;SDS011;33558;50.922;14.068;2023-02-28T08:47:25;17.50;;;10.60;;
47796;SDS011;33558;50.922;14.068;2023-02-28T08:49:52;24.87;;;10.93;;
47796;SDS011;33558;50.922;14.068;2023-02-28T08:52:18;21.40;;;11.33;;
47796;SDS011;33558;50.922;14.068;2023-02-28T08:54:46;21.40;;;11.47;;
47796;SDS011;33558;50.922;14.068;2023-02-28T08:57:13;19.20;;;10.37;;
47796;SDS011;33558;50.922;14.068;2023-02-28T08:59:39;18.30;;;10.53;;
47796;SDS011;33558;50.922;14.068;2023-02-28T09:02:08;20.07;;;12.10;;
47796;SDS011;33558;50.922;14.068;2023-02-28T09:04:35;16.63;;;10.30;;
47796;SDS011;33558;50.922;14.068;2023-02-28T09:07:01;18.80;;;11.73;;
47796;SDS011;33558;50.922;14.068;2023-02-28T09:09:28;19.40;;;10.53;;
47796;SDS011;33558;50.922;14.068;2023-02-28T09:11:56;18.47;;;10.47;;
47796;SDS011;33558;50.922;14.068;2023-02-28T09:14:23;21.20;;;11.77;;
47796;SDS011;33558;50.922;14.068;2023-02-28T09:16:50;15.97;;;9.53;;
47796;SDS011;33558;50.922;14.068;2023-02-28T09:19:16;18.80;;;10.70;;
47796;SDS011;33558;50.922;14.068;2023-02-28T09:21:43;16.70;;;9.50;;
47796;SDS011;33558;50.922;14.068;2023-02-28T09:24:10;17.17;;;9.20;;
47796;SDS011;33558;50.922;14.068;2023-02-28T09:26:39;13.87;;;8.70;;
47796;SDS011;33558;50.922;14.068;2023-02-28T09:29:07;14.60;;;8.67;;
47796;SDS011;33558;50.922;14.068;2023-02-28T09:31:34;18.70;;;8.60;;
47796;SDS011;33558;50.922;14.068;2023-02-28T09:34:00;14.33;;;8.33;;
47796;SDS011;33558;50.922;14.068;2023-02-28T09:36:27;15.20;;;8.10;;
47796;SDS011;33558;50.922;14.068;2023-02-28T09:38:55;14.30;;;8.17;;
47796;SDS011;33558;50.922;14.068;2023-02-28T09:41:22;13.67;;;7.93;;
47796;SDS011;33558;50.922;14.068;2023-02-28T09:43:51;15.30;;;8.10;;
47796;SDS011;33558;50.922;14.068;2023-02-28T09:46:25;12.00;;;7.67;;
47796;SDS011;33558;50.922;14.068;2023-02-28T09:48:54;12.37;;;7.87;;
47796;SDS011;33558;50.922;14.068;2023-02-28T09:51:26;16.80;;;7.83;;
47796;SDS011;33558;50.922;14.068;2023-02-28T09:53:59;12.83;;;7.03;;
47796;SDS011;33558;50.922;14.068;2023-02-28T09:56:27;13.77;;;7.43;;
47796;SDS011;33558;50.922;14.068;2023-02-28T09:59:00;11.73;;;7.37;;
47796;SDS011;33558;50.922;14.068;2023-02-28T10:01:31;10.73;;;6.07;;
47796;SDS011;33558;50.922;14.068;2023-02-28T10:04:03;10.97;;;6.70;;
47796;SDS011;33558;50.922;14.068;2023-02-28T10:06:35;9.97;;;6.67;;
47796;SDS011;33558;50.922;14.068;2023-02-28T10:09:06;12.47;;;7.20;;
47796;SDS011;33558;50.922;14.068;2023-02-28T10:11:38;12.07;;;7.00;;
47796;SDS011;33558;50.922;14.068;2023-02-28T10:14:06;11.00;;;6.47;;
47796;SDS011;33558;50.922;14.068;2023-02-28T10:16:40;12.57;;;6.63;;
47796;SDS011;33558;50.922;14.068;2023-02-28T10:19:12;11.57;;;6.27;;
47796;SDS011;33558;50.922;14.068;2023-02-28T10:21:41;8.47;;;5.80;;
47796;SDS011;33558;50.922;14.068;2023-02-28T10:24:13;11.27;;;5.90;;
47796;SDS011;33558;50.922;14.068;2023-02-28T10:26:45;9.13;;;5.77;;
47796;SDS011;33558;50.922;14.068;2023-02-28T10:29:13;9.90;;;5.03;;
47796;SDS011;33558;50.922;14.068;2023-02-28T10:31:41;9.37;;;6.23;;
47796;SDS011;33558;50.922;14.068;2023-02-28T10:34:08;8.83;;;5.40;;
47796;SDS011;33558;50.922;14.068;2023-02-28T10:36:38;9.70;;;5.33;;
47796;SDS011;33558;50.922;14.068;2023-02-28T10:42:18;9.27;;;5.27;;
47796;SDS011;33558;50.922;14.068;2023-02-28T10:44:46;8.83;;;4.90;;
47796;SDS011;33558;50.922;14.068;2023-02-28T10:47:15;8.43;;;4.90;;
47796;SDS011;33558;50.922;14.068;2023-02-28T10:49:46;9.47;;;4.90;;
47796;SDS011;33558;50.922;14.068;2023-02-28T10:52:13;11.53;;;5.63;;
47796;SDS011;33558;50.922;14.068;2023-02-28T10:55:12;9.70;;;6.10;;
47796;SDS011;33558;50.922;14.068;2023-02-28T10:57:40;8.47;;;5.10;;
47796;SDS011;33558;50.922;14.068;2023-02-28T11:00:12;8.40;;;5.27;;
47796;SDS011;33558;50.922;14.068;2023-02-28T11:02:42;8.87;;;5.20;;
47796;SDS011;33558;50.922;14.068;2023-02-28T11:05:23;8.83;;;5.53;;
47796;SDS011;33558;50.922;14.068;2023-02-28T11:07:52;9.77;;;5.77;;
47796;SDS011;33558;50.922;14.068;2023-02-28T11:10:20;9.33;;;5.63;;
47796;SDS011;33558;50.922;14.068;2023-02-28T11:12:49;8.73;;;5.17;;
47796;SDS011;33558;50.922;14.068;2023-02-28T11:15:21;9.70;;;5.83;;
47796;SDS011;33558;50.922;14.068;2023-02-28T11:17:54;11.47;;;5.83;;
47796;SDS011;33558;50.922;14.068;2023-02-28T11:20:23;8.50;;;4.63;;
47796;SDS011;33558;50.922;14.068;2023-02-28T11:22:51;8.17;;;5.17;;
47796;SDS011;33558;50.922;14.068;2023-02-28T11:25:20;9.13;;;5.27;;
47796;SDS011;33558;50.922;14.068;2023-02-28T11:27:49;7.83;;;5.10;;
47796;SDS011;33558;50.922;14.068;2023-02-28T11:30:23;10.57;;;5.80;;
47796;SDS011;33558;50.922;14.068;2023-02-28T11:32:56;10.10;;;5.20;;
47796;SDS011;33558;50.922;14.068;2023-02-28T11:35:23;7.47;;;4.90;;
47796;SDS011;33558;50.922;14.068;2023-02-28T11:37:52;8.83;;;4.97;;
47796;SDS011;33558;50.922;14.068;2023-02-28T11:40:20;9.67;;;5.80;;
47796;SDS011;33558;50.922;14.068;2023-02-28T11:42:54;7.17;;;4.93;;
47796;SDS011;33558;50.922;14.068;2023-02-28T11:45:29;8.57;;;5.30;;
47796;SDS011;33558;50.922;14.068;2023-02-28T11:48:08;9.10;;;5.37;;
47796;SDS011;33558;50.922;14.068;2023-02-28T11:53:14;9.00;;;5.43;;
47796;SDS011;33558;50.922;14.068;2023-02-28T11:55:45;13.07;;;5.73;;
47796;SDS011;33558;50.922;14.068;2023-02-28T11:58:18;7.87;;;5.33;;
47796;SDS011;33558;50.922;14.068;2023-02-28T12:01:00;8.52;;;4.75;;
47796;SDS011;33558;50.922;14.068;2023-02-28T12:03:33;9.63;;;5.53;;
47796;SDS011;33558;50.922;14.068;2023-02-28T12:06:12;8.40;;;5.50;;
47796;SDS011;33558;50.922;14.068;2023-02-28T12:08:47;8.73;;;5.03;;
47796;SDS011;33558;50.922;14.068;2023-02-28T12:11:19;8.83;;;5.60;;
47796;SDS011;33558;50.922;14.068;2023-02-28T12:13:56;11.07;;;5.40;;
47796;SDS011;33558;50.922;14.068;2023-02-28T12:16:37;8.50;;;5.30;;
47796;SDS011;33558;50.922;14.068;2023-02-28T12:19:17;7.67;;;5.17;;
47796;SDS011;33558;50.922;14.068;2023-02-28T12:21:49;8.32;;;5.18;;
47796;SDS011;33558;50.922;14.068;2023-02-28T12:24:50;9.18;;;5.50;;
47796;SDS011;33558;50.922;14.068;2023-02-28T12:27:25;7.87;;;5.73;;
47796;SDS011;33558;50.922;14.068;2023-02-28T12:29:54;8.50;;;5.47;;
47796;SDS011;33558;50.922;14.068;2023-02-28T12:32:23;10.07;;;5.70;;
47796;SDS011;33558;50.922;14.068;2023-02-28T12:34:55;8.33;;;5.37;;
47796;SDS011;33558;50.922;14.068;2023-02-28T12:37:25;10.43;;;5.47;;
47796;SDS011;33558;50.922;14.068;2023-02-28T12:39:54;9.57;;;5.80;;
47796;SDS011;33558;50.922;14.068;2023-02-28T12:42:24;8.23;;;6.30;;
47796;SDS011;33558;50.922;14.068;2023-02-28T12:44:55;8.60;;;5.43;;
47796;SDS011;33558;50.922;14.068;2023-02-28T12:47:24;9.07;;;5.53;;
47796;SDS011;33558;50.922;14.068;2023-02-28T12:49:52;8.40;;;5.40;;
47796;SDS011;33558;50.922;14.068;2023-02-28T12:52:23;8.70;;;5.63;;
47796;SDS011;33558;50.922;14.068;2023-02-28T12:54:55;10.77;;;5.77;;
47796;SDS011;33558;50.922;14.068;2023-02-28T12:57:28;9.07;;;6.10;;
47796;SDS011;33558;50.922;14.068;2023-02-28T13:00:00;10.53;;;5.40;;
47796;SDS011;33558;50.922;14.068;2023-02-28T13:02:41;7.70;;;5.67;;
47796;SDS011;33558;50.922;14.068;2023-02-28T13:08:12;8.57;;;5.07;;
47796;SDS011;33558;50.922;14.068;2023-02-28T13:11:01;10.73;;;6.17;;
47796;SDS011;33558;50.922;14.068;2023-02-28T13:13:29;10.83;;;6.00;;
47796;SDS011;33558;50.922;14.068;2023-02-28T13:15:57;7.70;;;5.97;;
47796;SDS011;33558;50.922;14.068;2023-02-28T13:18:30;8.95;;;5.85;;
47796;SDS011;33558;50.922;14.068;2023-02-28T13:21:00;6.90;;;5.18;;
47796;SDS011;33558;50.922;14.068;2023-02-28T13:23:38;7.80;;;5.65;;
47796;SDS011;33558;50.922;14.068;2023-02-28T13:26:21;7.07;;;5.03;;
47796;SDS011;33558;50.922;14.068;2023-02-28T13:35:12;9.23;;;6.68;;
47796;SDS011;33558;50.922;14.068;2023-02-28T13:38:01;10.02;;;6.88;;
47796;SDS011;33558;50.922;14.068;2023-02-28T13:40:38;9.23;;;6.55;;
47796;SDS011;33558;50.922;14.068;2023-02-28T13:43:07;9.05;;;6.75;;
47796;SDS011;33558;50.922;14.068;2023-02-28T13:45:35;8.30;;;6.10;;
47796;SDS011;33558;50.922;14.068;2023-02-28T13:48:04;9.63;;;6.47;;
47796;SDS011;33558;50.922;14.068;2023-02-28T13:50:34;13.13;;;9.30;;
47796;SDS011;33558;50.922;14.068;2023-02-28T13:53:13;11.52;;;8.45;;
47796;SDS011;33558;50.922;14.068;2023-02-28T13:56:27;12.65;;;8.63;;
47796;SDS011;33558;50.922;14.068;2023-02-28T13:59:01;15.60;;;9.63;;
47796;SDS011;33558;50.922;14.068;2023-02-28T14:01:45;11.10;;;8.07;;
47796;SDS011;33558;50.922;14.068;2023-02-28T14:07:16;12.40;;;7.93;;
47796;SDS011;33558;50.922;14.068;2023-02-28T14:09:46;11.97;;;7.20;;
47796;SDS011;33558;50.922;14.068;2023-02-28T14:15:27;10.07;;;7.73;;
47796;SDS011;33558;50.922;14.068;2023-02-28T14:17:57;11.93;;;7.73;;
47796;SDS011;33558;50.922;14.068;2023-02-28T14:20:26;11.90;;;7.50;;
47796;SDS011;33558;50.922;14.068;2023-02-28T14:22:56;11.80;;;7.70;;
47796;SDS011;33558;50.922;14.068;2023-02-28T14:25:32;11.67;;;7.30;;
47796;SDS011;33558;50.922;14.068;2023-02-28T15:55:27;15.03;;;8.30;;
47796;SDS011;33558;50.922;14.068;2023-02-28T15:57:59;14.87;;;8.47;;
47796;SDS011;33558;50.922;14.068;2023-02-28T16:00:30;14.40;;;8.07;;
47796;SDS011;33558;50.922;14.068;2023-02-28T16:03:01;14.93;;;8.70;;
47796;SDS011;33558;50.922;14.068;2023-02-28T16:05:30;14.37;;;9.23;;
47796;SDS011;33558;50.922;14.068;2023-02-28T16:08:00;15.03;;;9.03;;
47796;SDS011;33558;50.922;14.068;2023-02-28T16:10:37;11.83;;;7.73;;
47796;SDS011;33558;50.922;14.068;2023-02-28T16:13:08;13.67;;;8.90;;
47796;SDS011;33558;50.922;14.068;2023-02-28T16:15:41;14.37;;;8.57;;
47796;SDS011;33558;50.922;14.068;2023-02-28T16:18:11;13.57;;;8.20;;
47796;SDS011;33558;50.922;14.068;2023-02-28T16:20:41;13.67;;;8.17;;
47796;SDS011;33558;50.922;14.068;2023-02-28T16:23:10;13.33;;;8.73;;
47796;SDS011;33558;50.922;14.068;2023-02-28T16:25:42;14.03;;;9.30;;
47796;SDS011;33558;50.922;14.068;2023-02-28T16:28:12;15.23;;;9.37;;
47796;SDS011;33558;50.922;14.068;2023-02-28T16:30:46;16.63;;;10.07;;
47796;SDS011;33558;50.922;14.068;2023-02-28T16:33:14;18.77;;;10.50;;
47796;SDS011;33558;50.922;14.068;2023-02-28T16:35:43;19.50;;;9.90;;
47796;SDS011;33558;50.922;14.068;2023-02-28T16:38:12;15.33;;;9.87;;
47796;SDS011;33558;50.922;14.068;2023-02-28T16:40:42;14.80;;;9.70;;
47796;SDS011;33558;50.922;14.068;2023-02-28T16:51:17;14.67;;;9.37;;
47796;SDS011;33558;50.922;14.068;2023-02-28T16:53:46;14.63;;;9.30;;
47796;SDS011;33558;50.922;14.068;2023-02-28T16:56:17;15.67;;;8.87;;
47796;SDS011;33558;50.922;14.068;2023-02-28T16:58:47;16.30;;;9.37;;
47796;SDS011;33558;50.922;14.068;2023-02-28T17:01:16;17.63;;;9.50;;
47796;SDS011;33558;50.922;14.068;2023-02-28T17:03:50;18.53;;;9.87;;
47796;SDS011;33558;50.922;14.068;2023-02-28T17:06:21;14.87;;;9.70;;
47796;SDS011;33558;50.922;14.068;2023-02-28T17:08:51;18.57;;;10.53;;
47796;SDS011;33558;50.922;14.068;2023-02-28T17:11:22;16.70;;;10.00;;
47796;SDS011;33558;50.922;14.068;2023-02-28T17:13:51;18.60;;;11.57;;
47796;SDS011;33558;50.922;14.068;2023-02-28T17:16:22;19.63;;;12.30;;
47796;SDS011;33558;50.922;14.068;2023-02-28T17:18:53;23.37;;;13.67;;
47796;SDS011;33558;50.922;14.068;2023-02-28T17:21:22;20.60;;;12.00;;
47796;SDS011;33558;50.922;14.068;2023-02-28T18:32:39;21.97;;;12.90;;
47796;SDS011;33558;50.922;14.068;2023-02-28T18:35:09;24.73;;;14.47;;
47796;SDS011;33558;50.922;14.068;2023-02-28T18:38:04;25.93;;;15.97;;
47796;SDS011;33558;50.922;14.068;2023-02-28T18:40:54;27.57;;;16.30;;